sensor_id;sensor_type;location;lat;lon;timestamp;temperature;humidity
19220;DHT22;9744;49.364;7.484;2023-06-22T00:00:25;22.70;99.90
19220;DHT22;9744;49.364;7.484;2023-06-22T00:02:52;22.10;99.90
19220;DHT22;9744;49.364;7.484;2023-06-22T00:05:21;21.90;99.90
19220;DHT22;9744;49.364;7.484;2023-06-22T00:07:48;22.00;99.90
19220;DHT22;9744;49.364;7.484;2023-06-22T00:10:20;22.40;99.90
19220;DHT22;9744;49.364;7.484;2023-06-22T00:12:47;23.20;99.90
19220;DHT22;9744;49.364;7.484;2023-06-22T00:15:15;23.70;99.90
19220;DHT22;9744;49.364;7.484;2023-06-22T00:17:42;23.90;99.90
19220;DHT22;9744;49.364;7.484;2023-06-22T00:20:10;24.00;99.90
19220;DHT22;9744;49.364;7.484;2023-06-22T00:22:39;24.20;99.90
19220;DHT22;9744;49.364;7.484;2023-06-22T00:25:09;24.40;99.90
19220;DHT22;9744;49.364;7.484;2023-06-22T00:27:36;24.60;99.90
19220;DHT22;9744;49.364;7.484;2023-06-22T00:30:07;24.80;99.90
19220;DHT22;9744;49.364;7.484;2023-06-22T00:32:34;24.90;99.90
19220;DHT22;9744;49.364;7.484;2023-06-22T00:35:02;25.00;99.90
19220;DHT22;9744;49.364;7.484;2023-06-22T00:37:29;25.00;99.90
19220;DHT22;9744;49.364;7.484;2023-06-22T00:39:58;25.00;99.90
19220;DHT22;9744;49.364;7.484;2023-06-22T00:42:25;25.10;99.90
19220;DHT22;9744;49.364;7.484;2023-06-22T00:44:52;25.10;99.90
19220;DHT22;9744;49.364;7.484;2023-06-22T00:47:20;25.10;99.90
19220;DHT22;9744;49.364;7.484;2023-06-22T00:49:48;25.10;99.90
19220;DHT22;9744;49.364;7.484;2023-06-22T00:52:17;25.10;99.90
19220;DHT22;9744;49.364;7.484;2023-06-22T00:54:47;25.10;99.90
19220;DHT22;9744;49.364;7.484;2023-06-22T00:57:17;25.10;99.90
19220;DHT22;9744;49.364;7.484;2023-06-22T00:59:46;25.10;99.90
19220;DHT22;9744;49.364;7.484;2023-06-22T01:02:14;25.00;99.90
19220;DHT22;9744;49.364;7.484;2023-06-22T01:04:42;25.00;99.90
19220;DHT22;9744;49.364;7.484;2023-06-22T01:07:14;24.90;99.90
19220;DHT22;9744;49.364;7.484;2023-06-22T01:09:56;24.80;99.90
19220;DHT22;9744;49.364;7.484;2023-06-22T01:12:26;24.80;99.90
19220;DHT22;9744;49.364;7.484;2023-06-22T01:15:04;24.70;99.90
19220;DHT22;9744;49.364;7.484;2023-06-22T01:17:32;24.70;99.90
19220;DHT22;9744;49.364;7.484;2023-06-22T01:20:00;24.60;99.90
19220;DHT22;9744;49.364;7.484;2023-06-22T01:22:35;24.60;99.90
19220;DHT22;9744;49.364;7.484;2023-06-22T01:25:12;24.50;99.90
19220;DHT22;9744;49.364;7.484;2023-06-22T01:27:52;24.40;99.90
19220;DHT22;9744;49.364;7.484;2023-06-22T01:30:22;24.20;99.90
19220;DHT22;9744;49.364;7.484;2023-06-22T01:32:53;24.10;99.90
19220;DHT22;9744;49.364;7.484;2023-06-22T01:35:21;24.10;99.90
19220;DHT22;9744;49.364;7.484;2023-06-22T01:37:49;24.00;99.90
19220;DHT22;9744;49.364;7.484;2023-06-22T01:40:18;24.00;99.90
19220;DHT22;9744;49.364;7.484;2023-06-22T01:42:47;24.00;99.90
19220;DHT22;9744;49.364;7.484;2023-06-22T01:45:15;24.00;99.90
19220;DHT22;9744;49.364;7.484;2023-06-22T01:47:44;24.00;99.90
19220;DHT22;9744;49.364;7.484;2023-06-22T01:50:12;24.20;99.90
19220;DHT22;9744;49.364;7.484;2023-06-22T01:52:39;24.20;99.90
19220;DHT22;9744;49.364;7.484;2023-06-22T01:55:07;24.20;99.90
19220;DHT22;9744;49.364;7.484;2023-06-22T01:57:35;24.10;99.90
19220;DHT22;9744;49.364;7.484;2023-06-22T02:00:04;24.10;99.90
19220;DHT22;9744;49.364;7.484;2023-06-22T02:02:53;24.10;99.90
19220;DHT22;9744;49.364;7.484;2023-06-22T02:05:22;24.10;99.90
19220;DHT22;9744;49.364;7.484;2023-06-22T02:07:56;24.10;99.90
19220;DHT22;9744;49.364;7.484;2023-06-22T02:10:26;24.10;99.90
19220;DHT22;9744;49.364;7.484;2023-06-22T02:12:57;24.10;99.90
19220;DHT22;9744;49.364;7.484;2023-06-22T02:15:26;24.10;99.90
19220;DHT22;9744;49.364;7.484;2023-06-22T02:17:56;24.10;99.90
19220;DHT22;9744;49.364;7.484;2023-06-22T02:20:24;24.10;99.90
19220;DHT22;9744;49.364;7.484;2023-06-22T02:22:51;24.10;99.90
19220;DHT22;9744;49.364;7.484;2023-06-22T02:25:18;24.00;99.90
19220;DHT22;9744;49.364;7.484;2023-06-22T02:27:45;24.00;99.90
19220;DHT22;9744;49.364;7.484;2023-06-22T02:30:14;24.00;99.90
19220;DHT22;9744;49.364;7.484;2023-06-22T02:32:41;24.00;99.90
19220;DHT22;9744;49.364;7.484;2023-06-22T02:35:10;24.10;99.90
19220;DHT22;9744;49.364;7.484;2023-06-22T02:37:38;24.20;99.90
19220;DHT22;9744;49.364;7.484;2023-06-22T02:40:08;24.10;99.90
19220;DHT22;9744;49.364;7.484;2023-06-22T02:42:36;24.10;99.90
19220;DHT22;9744;49.364;7.484;2023-06-22T02:45:04;24.00;99.90
19220;DHT22;9744;49.364;7.484;2023-06-22T02:47:31;24.00;99.90
19220;DHT22;9744;49.364;7.484;2023-06-22T02:49:58;23.90;99.90
19220;DHT22;9744;49.364;7.484;2023-06-22T02:52:27;23.90;99.90
19220;DHT22;9744;49.364;7.484;2023-06-22T02:54:55;23.80;99.90
19220;DHT22;9744;49.364;7.484;2023-06-22T02:57:22;23.70;99.90
19220;DHT22;9744;49.364;7.484;2023-06-22T02:59:49;23.60;99.90
19220;DHT22;9744;49.364;7.484;2023-06-22T03:02:16;23.50;99.90
19220;DHT22;9744;49.364;7.484;2023-06-22T03:04:44;23.50;99.90
19220;DHT22;9744;49.364;7.484;2023-06-22T03:07:14;23.50;99.90
19220;DHT22;9744;49.364;7.484;2023-06-22T03:09:44;23.50;99.90
19220;DHT22;9744;49.364;7.484;2023-06-22T03:12:11;23.50;99.90
19220;DHT22;9744;49.364;7.484;2023-06-22T03:14:49;23.50;99.90
19220;DHT22;9744;49.364;7.484;2023-06-22T03:17:17;23.50;99.90
19220;DHT22;9744;49.364;7.484;2023-06-22T03:19:45;23.30;99.90
19220;DHT22;9744;49.364;7.484;2023-06-22T03:22:12;23.10;99.90
19220;DHT22;9744;49.364;7.484;2023-06-22T03:24:40;23.10;99.90
19220;DHT22;9744;49.364;7.484;2023-06-22T03:27:09;23.00;99.90
19220;DHT22;9744;49.364;7.484;2023-06-22T03:29:36;23.10;99.90
19220;DHT22;9744;49.364;7.484;2023-06-22T03:32:04;23.10;99.90
19220;DHT22;9744;49.364;7.484;2023-06-22T03:34:32;23.20;99.90
19220;DHT22;9744;49.364;7.484;2023-06-22T03:37:00;23.20;99.90
19220;DHT22;9744;49.364;7.484;2023-06-22T03:39:27;23.10;99.90
19220;DHT22;9744;49.364;7.484;2023-06-22T03:41:54;23.00;99.90
19220;DHT22;9744;49.364;7.484;2023-06-22T03:44:25;22.90;99.90
19220;DHT22;9744;49.364;7.484;2023-06-22T03:46:52;22.80;99.90
19220;DHT22;9744;49.364;7.484;2023-06-22T03:49:19;22.80;99.90
19220;DHT22;9744;49.364;7.484;2023-06-22T03:51:46;22.80;99.90
19220;DHT22;9744;49.364;7.484;2023-06-22T03:54:13;22.90;99.90
19220;DHT22;9744;49.364;7.484;2023-06-22T03:56:41;22.90;99.90
19220;DHT22;9744;49.364;7.484;2023-06-22T03:59:08;23.00;99.90
19220;DHT22;9744;49.364;7.484;2023-06-22T04:01:37;22.80;99.90
19220;DHT22;9744;49.364;7.484;2023-06-22T04:04:05;22.90;99.90
19220;DHT22;9744;49.364;7.484;2023-06-22T04:06:33;22.90;99.90
19220;DHT22;9744;49.364;7.484;2023-06-22T04:09:00;23.00;99.90
19220;DHT22;9744;49.364;7.484;2023-06-22T04:11:28;22.90;99.90
19220;DHT22;9744;49.364;7.484;2023-06-22T04:13:55;22.90;99.90
19220;DHT22;9744;49.364;7.484;2023-06-22T04:16:23;22.90;99.90
19220;DHT22;9744;49.364;7.484;2023-06-22T04:18:51;23.00;99.90
19220;DHT22;9744;49.364;7.484;2023-06-22T04:21:19;22.90;99.90
19220;DHT22;9744;49.364;7.484;2023-06-22T04:23:46;22.80;99.90
19220;DHT22;9744;49.364;7.484;2023-06-22T04:26:14;22.50;99.90
19220;DHT22;9744;49.364;7.484;2023-06-22T04:28:41;22.40;99.90
19220;DHT22;9744;49.364;7.484;2023-06-22T04:31:08;22.40;99.90
19220;DHT22;9744;49.364;7.484;2023-06-22T04:33:35;22.60;99.90
19220;DHT22;9744;49.364;7.484;2023-06-22T04:36:09;22.80;99.90
19220;DHT22;9744;49.364;7.484;2023-06-22T04:38:39;22.70;99.90
19220;DHT22;9744;49.364;7.484;2023-06-22T04:41:06;22.80;99.90
19220;DHT22;9744;49.364;7.484;2023-06-22T04:43:35;22.90;99.90
19220;DHT22;9744;49.364;7.484;2023-06-22T04:46:02;23.00;99.90
19220;DHT22;9744;49.364;7.484;2023-06-22T04:48:30;23.00;99.90
19220;DHT22;9744;49.364;7.484;2023-06-22T04:50:59;23.00;99.90
19220;DHT22;9744;49.364;7.484;2023-06-22T04:57:44;23.00;99.90
19220;DHT22;9744;49.364;7.484;2023-06-22T05:00:17;22.90;99.90
19220;DHT22;9744;49.364;7.484;2023-06-22T05:02:46;22.80;99.90
19220;DHT22;9744;49.364;7.484;2023-06-22T05:05:14;22.80;99.90
19220;DHT22;9744;49.364;7.484;2023-06-22T05:08:00;22.80;99.90
19220;DHT22;9744;49.364;7.484;2023-06-22T05:10:28;23.00;99.90
19220;DHT22;9744;49.364;7.484;2023-06-22T05:12:57;23.20;99.90
19220;DHT22;9744;49.364;7.484;2023-06-22T05:15:24;23.30;99.90
19220;DHT22;9744;49.364;7.484;2023-06-22T05:17:56;23.40;99.90
19220;DHT22;9744;49.364;7.484;2023-06-22T05:20:25;23.30;99.90
19220;DHT22;9744;49.364;7.484;2023-06-22T05:22:53;23.30;99.90
19220;DHT22;9744;49.364;7.484;2023-06-22T05:25:47;23.20;99.90
19220;DHT22;9744;49.364;7.484;2023-06-22T05:28:20;23.20;99.90
19220;DHT22;9744;49.364;7.484;2023-06-22T05:30:49;23.40;99.90
19220;DHT22;9744;49.364;7.484;2023-06-22T05:33:16;23.50;99.90
19220;DHT22;9744;49.364;7.484;2023-06-22T05:35:43;23.60;99.90
19220;DHT22;9744;49.364;7.484;2023-06-22T05:38:11;23.70;99.90
19220;DHT22;9744;49.364;7.484;2023-06-22T05:40:38;23.70;99.90
19220;DHT22;9744;49.364;7.484;2023-06-22T05:43:05;23.80;99.90
19220;DHT22;9744;49.364;7.484;2023-06-22T05:45:33;23.90;99.90
19220;DHT22;9744;49.364;7.484;2023-06-22T05:48:01;24.00;99.90
19220;DHT22;9744;49.364;7.484;2023-06-22T05:50:28;24.10;99.90
19220;DHT22;9744;49.364;7.484;2023-06-22T05:52:55;24.10;99.90
19220;DHT22;9744;49.364;7.484;2023-06-22T05:55:22;24.20;99.90
19220;DHT22;9744;49.364;7.484;2023-06-22T05:57:50;24.30;99.90
19220;DHT22;9744;49.364;7.484;2023-06-22T06:00:18;24.30;99.90
19220;DHT22;9744;49.364;7.484;2023-06-22T06:02:46;24.40;99.90
19220;DHT22;9744;49.364;7.484;2023-06-22T06:05:16;24.30;99.90
19220;DHT22;9744;49.364;7.484;2023-06-22T06:07:45;24.30;99.90
19220;DHT22;9744;49.364;7.484;2023-06-22T06:10:12;24.40;99.90
19220;DHT22;9744;49.364;7.484;2023-06-22T06:12:40;24.50;99.90
19220;DHT22;9744;49.364;7.484;2023-06-22T06:15:08;24.60;99.90
19220;DHT22;9744;49.364;7.484;2023-06-22T06:17:35;24.60;99.90
19220;DHT22;9744;49.364;7.484;2023-06-22T06:20:05;24.70;99.90
19220;DHT22;9744;49.364;7.484;2023-06-22T06:22:33;24.80;99.90
19220;DHT22;9744;49.364;7.484;2023-06-22T06:25:00;24.80;99.90
19220;DHT22;9744;49.364;7.484;2023-06-22T06:27:28;24.90;99.90
19220;DHT22;9744;49.364;7.484;2023-06-22T06:29:56;24.90;99.90
19220;DHT22;9744;49.364;7.484;2023-06-22T06:32:23;25.00;99.90
19220;DHT22;9744;49.364;7.484;2023-06-22T06:34:51;25.00;99.90
19220;DHT22;9744;49.364;7.484;2023-06-22T06:37:19;25.10;99.90
19220;DHT22;9744;49.364;7.484;2023-06-22T06:39:46;25.20;99.90
19220;DHT22;9744;49.364;7.484;2023-06-22T06:42:14;25.20;99.90
19220;DHT22;9744;49.364;7.484;2023-06-22T06:44:41;25.40;99.90
19220;DHT22;9744;49.364;7.484;2023-06-22T06:47:08;25.50;99.90
19220;DHT22;9744;49.364;7.484;2023-06-22T06:49:35;25.60;99.90
19220;DHT22;9744;49.364;7.484;2023-06-22T06:52:03;25.60;99.90
19220;DHT22;9744;49.364;7.484;2023-06-22T06:54:32;25.70;99.90
19220;DHT22;9744;49.364;7.484;2023-06-22T06:56:59;25.90;99.90
19220;DHT22;9744;49.364;7.484;2023-06-22T06:59:29;26.00;99.90
19220;DHT22;9744;49.364;7.484;2023-06-22T07:01:57;26.20;99.90
19220;DHT22;9744;49.364;7.484;2023-06-22T07:04:24;26.40;99.90
19220;DHT22;9744;49.364;7.484;2023-06-22T07:06:51;26.60;99.90
19220;DHT22;9744;49.364;7.484;2023-06-22T07:09:18;26.70;99.90
19220;DHT22;9744;49.364;7.484;2023-06-22T07:11:48;26.90;99.90
19220;DHT22;9744;49.364;7.484;2023-06-22T07:14:15;27.20;99.90
19220;DHT22;9744;49.364;7.484;2023-06-22T07:16:43;27.30;99.90
19220;DHT22;9744;49.364;7.484;2023-06-22T07:19:11;27.50;99.90
19220;DHT22;9744;49.364;7.484;2023-06-22T07:21:39;27.90;99.90
19220;DHT22;9744;49.364;7.484;2023-06-22T07:24:07;28.00;99.90
19220;DHT22;9744;49.364;7.484;2023-06-22T07:26:34;28.20;99.90
19220;DHT22;9744;49.364;7.484;2023-06-22T07:29:02;28.50;99.90
19220;DHT22;9744;49.364;7.484;2023-06-22T07:31:30;28.70;99.90
19220;DHT22;9744;49.364;7.484;2023-06-22T07:33:57;28.90;99.90
19220;DHT22;9744;49.364;7.484;2023-06-22T07:36:24;29.10;99.90
19220;DHT22;9744;49.364;7.484;2023-06-22T07:38:52;29.30;99.90
19220;DHT22;9744;49.364;7.484;2023-06-22T07:41:19;29.20;99.90
19220;DHT22;9744;49.364;7.484;2023-06-22T07:43:46;29.30;99.90
19220;DHT22;9744;49.364;7.484;2023-06-22T07:46:15;29.40;99.90
19220;DHT22;9744;49.364;7.484;2023-06-22T07:48:43;29.50;99.90
19220;DHT22;9744;49.364;7.484;2023-06-22T07:51:10;29.70;99.90
19220;DHT22;9744;49.364;7.484;2023-06-22T07:53:39;29.80;99.90
19220;DHT22;9744;49.364;7.484;2023-06-22T07:56:07;29.80;99.90
19220;DHT22;9744;49.364;7.484;2023-06-22T07:58:35;29.70;99.90
19220;DHT22;9744;49.364;7.484;2023-06-22T08:01:02;29.60;99.90
19220;DHT22;9744;49.364;7.484;2023-06-22T08:03:31;29.60;99.90
19220;DHT22;9744;49.364;7.484;2023-06-22T08:05:58;29.60;99.90
19220;DHT22;9744;49.364;7.484;2023-06-22T08:08:25;29.50;99.90
19220;DHT22;9744;49.364;7.484;2023-06-22T08:10:53;29.50;99.90
19220;DHT22;9744;49.364;7.484;2023-06-22T08:13:20;29.50;99.90
19220;DHT22;9744;49.364;7.484;2023-06-22T08:15:47;29.50;99.90
19220;DHT22;9744;49.364;7.484;2023-06-22T08:18:15;29.60;99.90
19220;DHT22;9744;49.364;7.484;2023-06-22T08:20:44;29.70;99.90
19220;DHT22;9744;49.364;7.484;2023-06-22T08:23:11;29.80;99.90
19220;DHT22;9744;49.364;7.484;2023-06-22T08:25:38;29.90;99.90
19220;DHT22;9744;49.364;7.484;2023-06-22T08:28:06;30.10;99.90
19220;DHT22;9744;49.364;7.484;2023-06-22T08:30:33;30.20;99.90
19220;DHT22;9744;49.364;7.484;2023-06-22T08:33:00;30.20;99.90
19220;DHT22;9744;49.364;7.484;2023-06-22T08:35:28;30.20;99.90
19220;DHT22;9744;49.364;7.484;2023-06-22T08:37:57;30.10;99.90
19220;DHT22;9744;49.364;7.484;2023-06-22T08:40:27;30.10;99.90
19220;DHT22;9744;49.364;7.484;2023-06-22T08:42:55;30.10;99.90
19220;DHT22;9744;49.364;7.484;2023-06-22T08:45:22;30.10;99.90
19220;DHT22;9744;49.364;7.484;2023-06-22T08:47:50;30.10;99.90
19220;DHT22;9744;49.364;7.484;2023-06-22T08:50:18;30.00;99.90
19220;DHT22;9744;49.364;7.484;2023-06-22T08:52:45;29.80;99.90
19220;DHT22;9744;49.364;7.484;2023-06-22T08:55:15;29.70;99.90
19220;DHT22;9744;49.364;7.484;2023-06-22T08:57:42;29.70;99.90
19220;DHT22;9744;49.364;7.484;2023-06-22T09:00:11;29.50;99.90
19220;DHT22;9744;49.364;7.484;2023-06-22T09:02:46;29.60;99.90
19220;DHT22;9744;49.364;7.484;2023-06-22T09:05:14;29.60;99.90
19220;DHT22;9744;49.364;7.484;2023-06-22T09:07:41;29.60;99.90
19220;DHT22;9744;49.364;7.484;2023-06-22T09:10:09;29.60;99.90
19220;DHT22;9744;49.364;7.484;2023-06-22T09:12:39;29.80;99.90
19220;DHT22;9744;49.364;7.484;2023-06-22T09:15:07;29.90;99.90
19220;DHT22;9744;49.364;7.484;2023-06-22T09:17:35;30.20;99.90
19220;DHT22;9744;49.364;7.484;2023-06-22T09:20:03;30.30;99.90
19220;DHT22;9744;49.364;7.484;2023-06-22T09:22:32;30.60;99.90
19220;DHT22;9744;49.364;7.484;2023-06-22T09:24:59;30.70;99.90
19220;DHT22;9744;49.364;7.484;2023-06-22T09:27:27;30.80;99.90
19220;DHT22;9744;49.364;7.484;2023-06-22T09:29:55;31.00;99.90
19220;DHT22;9744;49.364;7.484;2023-06-22T09:32:24;31.10;99.90
19220;DHT22;9744;49.364;7.484;2023-06-22T09:34:51;31.20;99.90
19220;DHT22;9744;49.364;7.484;2023-06-22T09:37:19;31.40;99.90
19220;DHT22;9744;49.364;7.484;2023-06-22T09:39:46;31.50;99.90
19220;DHT22;9744;49.364;7.484;2023-06-22T09:42:13;31.60;99.90
19220;DHT22;9744;49.364;7.484;2023-06-22T09:44:40;31.80;99.90
19220;DHT22;9744;49.364;7.484;2023-06-22T09:47:09;32.10;99.90
19220;DHT22;9744;49.364;7.484;2023-06-22T09:49:36;32.30;99.90
19220;DHT22;9744;49.364;7.484;2023-06-22T09:52:04;32.70;99.90
19220;DHT22;9744;49.364;7.484;2023-06-22T09:54:34;32.80;99.90
19220;DHT22;9744;49.364;7.484;2023-06-22T09:57:03;33.10;99.90
19220;DHT22;9744;49.364;7.484;2023-06-22T09:59:31;33.50;99.90
19220;DHT22;9744;49.364;7.484;2023-06-22T10:02:00;33.70;99.90
19220;DHT22;9744;49.364;7.484;2023-06-22T10:04:29;33.90;99.90
19220;DHT22;9744;49.364;7.484;2023-06-22T10:06:56;34.10;99.90
19220;DHT22;9744;49.364;7.484;2023-06-22T10:09:23;34.20;99.90
19220;DHT22;9744;49.364;7.484;2023-06-22T10:11:51;34.40;99.90
19220;DHT22;9744;49.364;7.484;2023-06-22T10:14:18;34.70;99.90
19220;DHT22;9744;49.364;7.484;2023-06-22T10:16:45;35.00;99.90
19220;DHT22;9744;49.364;7.484;2023-06-22T10:19:13;34.90;99.90
19220;DHT22;9744;49.364;7.484;2023-06-22T10:21:41;35.10;99.90
19220;DHT22;9744;49.364;7.484;2023-06-22T10:24:09;35.30;99.90
19220;DHT22;9744;49.364;7.484;2023-06-22T10:26:36;35.30;99.90
19220;DHT22;9744;49.364;7.484;2023-06-22T10:29:03;35.50;99.90
19220;DHT22;9744;49.364;7.484;2023-06-22T10:31:31;35.80;99.90
19220;DHT22;9744;49.364;7.484;2023-06-22T10:33:58;36.00;99.90
19220;DHT22;9744;49.364;7.484;2023-06-22T10:36:25;36.10;99.90
19220;DHT22;9744;49.364;7.484;2023-06-22T10:38:54;36.00;99.90
19220;DHT22;9744;49.364;7.484;2023-06-22T10:41:21;36.00;99.90
19220;DHT22;9744;49.364;7.484;2023-06-22T10:43:48;36.00;99.90
19220;DHT22;9744;49.364;7.484;2023-06-22T10:46:16;36.00;99.90
19220;DHT22;9744;49.364;7.484;2023-06-22T10:48:43;36.20;99.90
19220;DHT22;9744;49.364;7.484;2023-06-22T10:51:10;36.40;99.90
19220;DHT22;9744;49.364;7.484;2023-06-22T10:53:38;36.70;99.90
19220;DHT22;9744;49.364;7.484;2023-06-22T10:56:06;37.00;99.90
19220;DHT22;9744;49.364;7.484;2023-06-22T10:58:34;36.90;99.90
19220;DHT22;9744;49.364;7.484;2023-06-22T11:01:01;37.10;99.90
19220;DHT22;9744;49.364;7.484;2023-06-22T11:03:29;37.30;99.90
19220;DHT22;9744;49.364;7.484;2023-06-22T11:05:56;37.40;99.90
19220;DHT22;9744;49.364;7.484;2023-06-22T11:08:23;37.10;99.90
19220;DHT22;9744;49.364;7.484;2023-06-22T11:10:51;36.90;99.90
19220;DHT22;9744;49.364;7.484;2023-06-22T11:13:20;36.80;99.90
19220;DHT22;9744;49.364;7.484;2023-06-22T11:15:47;36.30;99.90
19220;DHT22;9744;49.364;7.484;2023-06-22T11:18:14;36.00;99.90
19220;DHT22;9744;49.364;7.484;2023-06-22T11:20:42;36.50;99.90
19220;DHT22;9744;49.364;7.484;2023-06-22T11:23:10;36.00;99.90
19220;DHT22;9744;49.364;7.484;2023-06-22T11:25:37;34.90;99.90
19220;DHT22;9744;49.364;7.484;2023-06-22T11:28:05;34.50;99.90
19220;DHT22;9744;49.364;7.484;2023-06-22T11:30:33;34.50;99.90
19220;DHT22;9744;49.364;7.484;2023-06-22T11:33:01;35.30;99.90
19220;DHT22;9744;49.364;7.484;2023-06-22T11:35:28;35.50;99.90
19220;DHT22;9744;49.364;7.484;2023-06-22T11:37:55;34.80;99.90
19220;DHT22;9744;49.364;7.484;2023-06-22T11:40:24;34.50;99.90
19220;DHT22;9744;49.364;7.484;2023-06-22T11:42:51;34.30;99.90
19220;DHT22;9744;49.364;7.484;2023-06-22T11:45:18;33.90;99.90
19220;DHT22;9744;49.364;7.484;2023-06-22T11:47:47;33.80;99.90
19220;DHT22;9744;49.364;7.484;2023-06-22T11:50:14;33.50;99.90
19220;DHT22;9744;49.364;7.484;2023-06-22T11:52:42;33.40;99.90
19220;DHT22;9744;49.364;7.484;2023-06-22T11:55:09;33.20;99.90
19220;DHT22;9744;49.364;7.484;2023-06-22T11:57:39;33.60;99.90
19220;DHT22;9744;49.364;7.484;2023-06-22T12:00:18;32.80;99.90
19220;DHT22;9744;49.364;7.484;2023-06-22T12:02:48;32.30;99.90
19220;DHT22;9744;49.364;7.484;2023-06-22T12:05:15;31.80;99.90
19220;DHT22;9744;49.364;7.484;2023-06-22T12:07:43;31.90;99.90
19220;DHT22;9744;49.364;7.484;2023-06-22T12:10:10;32.00;99.90
19220;DHT22;9744;49.364;7.484;2023-06-22T12:12:37;31.80;99.90
19220;DHT22;9744;49.364;7.484;2023-06-22T12:15:05;31.90;99.90
19220;DHT22;9744;49.364;7.484;2023-06-22T12:17:33;32.00;99.90
19220;DHT22;9744;49.364;7.484;2023-06-22T12:20:03;31.60;99.90
19220;DHT22;9744;49.364;7.484;2023-06-22T12:22:31;31.50;99.90
19220;DHT22;9744;49.364;7.484;2023-06-22T12:24:58;31.60;99.90
19220;DHT22;9744;49.364;7.484;2023-06-22T12:27:26;32.10;99.90
19220;DHT22;9744;49.364;7.484;2023-06-22T12:29:53;32.20;99.90
19220;DHT22;9744;49.364;7.484;2023-06-22T12:32:21;31.80;99.90
19220;DHT22;9744;49.364;7.484;2023-06-22T12:34:48;32.40;99.90
19220;DHT22;9744;49.364;7.484;2023-06-22T12:37:18;33.00;99.90
19220;DHT22;9744;49.364;7.484;2023-06-22T12:39:45;32.80;99.90
19220;DHT22;9744;49.364;7.484;2023-06-22T12:42:12;31.70;99.90
19220;DHT22;9744;49.364;7.484;2023-06-22T12:44:40;31.90;99.90
19220;DHT22;9744;49.364;7.484;2023-06-22T12:47:08;31.80;99.90
19220;DHT22;9744;49.364;7.484;2023-06-22T12:49:35;31.90;99.90
19220;DHT22;9744;49.364;7.484;2023-06-22T12:52:03;31.70;99.90
19220;DHT22;9744;49.364;7.484;2023-06-22T12:54:31;31.70;99.90
19220;DHT22;9744;49.364;7.484;2023-06-22T12:56:59;32.00;99.90
19220;DHT22;9744;49.364;7.484;2023-06-22T12:59:26;32.20;99.90
19220;DHT22;9744;49.364;7.484;2023-06-22T13:01:54;32.30;99.90
19220;DHT22;9744;49.364;7.484;2023-06-22T13:04:21;31.80;99.90
19220;DHT22;9744;49.364;7.484;2023-06-22T13:06:48;31.60;99.90
19220;DHT22;9744;49.364;7.484;2023-06-22T13:09:17;31.50;99.90
19220;DHT22;9744;49.364;7.484;2023-06-22T13:11:46;31.50;99.90
19220;DHT22;9744;49.364;7.484;2023-06-22T13:14:13;31.20;99.90
19220;DHT22;9744;49.364;7.484;2023-06-22T13:16:41;31.20;99.90
19220;DHT22;9744;49.364;7.484;2023-06-22T13:19:09;31.30;99.90
19220;DHT22;9744;49.364;7.484;2023-06-22T13:21:36;31.30;99.90
19220;DHT22;9744;49.364;7.484;2023-06-22T13:24:04;31.10;99.90
19220;DHT22;9744;49.364;7.484;2023-06-22T13:26:33;31.00;99.90
19220;DHT22;9744;49.364;7.484;2023-06-22T13:29:01;31.00;99.90
19220;DHT22;9744;49.364;7.484;2023-06-22T13:31:29;30.50;99.90
19220;DHT22;9744;49.364;7.484;2023-06-22T13:33:56;30.30;99.90
19220;DHT22;9744;49.364;7.484;2023-06-22T13:36:24;30.00;99.90
19220;DHT22;9744;49.364;7.484;2023-06-22T13:38:51;30.30;99.90
19220;DHT22;9744;49.364;7.484;2023-06-22T13:41:18;30.30;99.90
19220;DHT22;9744;49.364;7.484;2023-06-22T13:43:45;29.90;99.90
19220;DHT22;9744;49.364;7.484;2023-06-22T13:46:14;30.10;99.90
19220;DHT22;9744;49.364;7.484;2023-06-22T13:48:42;29.90;99.90
19220;DHT22;9744;49.364;7.484;2023-06-22T13:51:09;29.80;99.90
19220;DHT22;9744;49.364;7.484;2023-06-22T13:53:36;29.70;99.90
19220;DHT22;9744;49.364;7.484;2023-06-22T13:56:04;29.90;99.90
19220;DHT22;9744;49.364;7.484;2023-06-22T13:58:31;29.80;99.90
19220;DHT22;9744;49.364;7.484;2023-06-22T14:00:59;29.90;99.90
19220;DHT22;9744;49.364;7.484;2023-06-22T14:03:28;30.00;99.90
19220;DHT22;9744;49.364;7.484;2023-06-22T14:05:55;30.20;99.90
19220;DHT22;9744;49.364;7.484;2023-06-22T14:08:24;30.30;99.90
19220;DHT22;9744;49.364;7.484;2023-06-22T14:10:51;30.20;99.90
19220;DHT22;9744;49.364;7.484;2023-06-22T14:13:19;30.20;99.90
19220;DHT22;9744;49.364;7.484;2023-06-22T14:15:47;30.00;99.90
19220;DHT22;9744;49.364;7.484;2023-06-22T14:18:15;29.80;99.90
19220;DHT22;9744;49.364;7.484;2023-06-22T14:20:44;29.80;99.90
19220;DHT22;9744;49.364;7.484;2023-06-22T14:23:13;29.60;99.90
19220;DHT22;9744;49.364;7.484;2023-06-22T14:25:40;29.60;99.90
19220;DHT22;9744;49.364;7.484;2023-06-22T14:28:08;29.30;99.90
19220;DHT22;9744;49.364;7.484;2023-06-22T14:30:35;28.90;99.90
19220;DHT22;9744;49.364;7.484;2023-06-22T14:33:02;28.60;99.90
19220;DHT22;9744;49.364;7.484;2023-06-22T14:35:31;28.20;99.90
19220;DHT22;9744;49.364;7.484;2023-06-22T14:37:59;27.60;99.90
19220;DHT22;9744;49.364;7.484;2023-06-22T14:40:26;27.10;99.90
19220;DHT22;9744;49.364;7.484;2023-06-22T14:42:54;26.90;99.90
19220;DHT22;9744;49.364;7.484;2023-06-22T14:45:22;27.00;99.90
19220;DHT22;9744;49.364;7.484;2023-06-22T14:47:49;27.10;99.90
19220;DHT22;9744;49.364;7.484;2023-06-22T14:50:17;27.30;99.90
19220;DHT22;9744;49.364;7.484;2023-06-22T14:52:44;27.60;99.90
19220;DHT22;9744;49.364;7.484;2023-06-22T14:55:13;28.00;99.90
19220;DHT22;9744;49.364;7.484;2023-06-22T14:57:40;28.30;99.90
19220;DHT22;9744;49.364;7.484;2023-06-22T15:00:08;28.40;99.90
19220;DHT22;9744;49.364;7.484;2023-06-22T15:02:35;28.60;99.90
19220;DHT22;9744;49.364;7.484;2023-06-22T15:05:03;28.90;99.90
19220;DHT22;9744;49.364;7.484;2023-06-22T15:07:31;28.90;99.90
19220;DHT22;9744;49.364;7.484;2023-06-22T15:09:58;28.70;99.90
19220;DHT22;9744;49.364;7.484;2023-06-22T15:12:27;28.70;99.90
19220;DHT22;9744;49.364;7.484;2023-06-22T15:14:55;28.90;99.90
19220;DHT22;9744;49.364;7.484;2023-06-22T15:17:22;29.10;99.90
19220;DHT22;9744;49.364;7.484;2023-06-22T15:19:54;29.00;99.90
19220;DHT22;9744;49.364;7.484;2023-06-22T15:22:22;28.90;99.90
19220;DHT22;9744;49.364;7.484;2023-06-22T15:24:49;28.80;99.90
19220;DHT22;9744;49.364;7.484;2023-06-22T15:27:18;28.70;99.90
19220;DHT22;9744;49.364;7.484;2023-06-22T15:29:47;28.80;99.90
19220;DHT22;9744;49.364;7.484;2023-06-22T15:32:15;28.80;99.90
19220;DHT22;9744;49.364;7.484;2023-06-22T15:34:42;28.70;99.90
19220;DHT22;9744;49.364;7.484;2023-06-22T15:37:09;28.70;99.90
19220;DHT22;9744;49.364;7.484;2023-06-22T15:39:37;28.70;99.90
19220;DHT22;9744;49.364;7.484;2023-06-22T15:42:04;28.50;99.90
19220;DHT22;9744;49.364;7.484;2023-06-22T15:44:32;28.20;99.90
19220;DHT22;9744;49.364;7.484;2023-06-22T15:47:00;28.00;99.90
19220;DHT22;9744;49.364;7.484;2023-06-22T15:49:28;28.20;99.90
19220;DHT22;9744;49.364;7.484;2023-06-22T15:51:55;28.40;99.90
19220;DHT22;9744;49.364;7.484;2023-06-22T15:54:22;28.50;99.90